createdAt,value
2022-11-24T00:00:18.348Z,53.40
2022-11-24T00:02:45.473Z,51.00
2022-11-24T00:05:12.759Z,53.40
2022-11-24T00:07:39.524Z,52.20
2022-11-24T00:10:09.776Z,54.30
2022-11-24T00:12:36.800Z,56.03
2022-11-24T00:15:06.824Z,54.43
2022-11-24T00:17:34.203Z,57.87
2022-11-24T00:20:00.903Z,57.73
2022-11-24T00:22:27.922Z,52.07
2022-11-24T00:24:54.661Z,49.63
2022-11-24T00:27:21.717Z,45.00
2022-11-24T00:29:48.419Z,52.47
2022-11-24T00:32:15.118Z,56.50
2022-11-24T00:34:42.465Z,57.33
2022-11-24T00:37:09.438Z,57.50
2022-11-24T00:39:36.331Z,55.90
2022-11-24T00:42:03.583Z,57.97
2022-11-24T00:44:30.800Z,59.20
2022-11-24T00:46:58.198Z,57.10
2022-11-24T00:49:25.191Z,57.93
2022-11-24T00:51:52.634Z,61.70
2022-11-24T00:54:19.710Z,52.00
2022-11-24T00:56:46.634Z,58.73
2022-11-24T00:59:13.607Z,60.50
2022-11-24T01:01:41.723Z,56.90
2022-11-24T01:04:08.610Z,54.27
2022-11-24T01:06:36.530Z,59.60
2022-11-24T01:09:04.290Z,58.07
2022-11-24T01:11:53.847Z,53.73
2022-11-24T01:14:22.147Z,43.57
2022-11-24T01:16:49.180Z,53.87
2022-11-24T01:19:22.164Z,55.23
2022-11-24T01:21:49.482Z,52.53
2022-11-24T01:24:17.178Z,53.63
2022-11-24T01:26:44.371Z,61.50
2022-11-24T01:29:11.816Z,59.17
2022-11-24T01:31:38.749Z,56.10
2022-11-24T01:34:05.789Z,55.93
2022-11-24T01:36:32.521Z,60.03
2022-11-24T01:39:02.197Z,47.03
2022-11-24T01:41:29.681Z,58.77
2022-11-24T01:43:58.895Z,37.03
2022-11-24T01:46:30.008Z,40.77
2022-11-24T01:49:05.238Z,51.80
2022-11-24T01:51:35.409Z,41.03
2022-11-24T01:54:06.835Z,50.77
2022-11-24T01:56:36.751Z,53.60
2022-11-24T01:59:07.358Z,47.97
2022-11-24T02:01:35.284Z,47.17
2022-11-24T02:04:07.249Z,60.27
2022-11-24T02:06:38.859Z,56.47
2022-11-24T02:09:11.463Z,60.83
2022-11-24T02:11:45.673Z,54.63
2022-11-24T02:14:15.790Z,52.53
2022-11-24T02:16:47.879Z,50.00
2022-11-24T02:19:21.724Z,54.50
2022-11-24T02:21:48.703Z,58.70
2022-11-24T02:24:23.878Z,55.63
2022-11-24T02:26:51.805Z,59.33
2022-11-24T02:29:19.560Z,44.90
2022-11-24T02:31:50.824Z,54.60
2022-11-24T02:34:17.803Z,47.80
2022-11-24T02:36:44.747Z,57.10
2022-11-24T02:39:12.338Z,32.00
2022-11-24T02:41:41.990Z,34.47
2022-11-24T02:44:10.668Z,44.17
2022-11-24T02:46:37.343Z,54.10
2022-11-24T02:49:04.752Z,47.43
2022-11-24T02:51:33.641Z,24.93
2022-11-24T02:54:00.604Z,36.87
2022-11-24T02:56:28.037Z,37.53
2022-11-24T02:58:55.022Z,46.43
2022-11-24T03:01:22.535Z,52.90
2022-11-24T03:03:49.232Z,49.53
2022-11-24T03:06:16.139Z,34.73
2022-11-24T03:08:43.439Z,48.67
2022-11-24T03:11:10.065Z,45.60
2022-11-24T03:13:36.685Z,50.90
2022-11-24T03:16:04.263Z,47.37
2022-11-24T03:18:31.561Z,33.27
2022-11-24T03:20:59.795Z,49.90
2022-11-24T03:23:26.543Z,41.43
2022-11-24T03:25:53.979Z,52.20
2022-11-24T03:28:20.678Z,52.23
2022-11-24T03:30:48.339Z,50.03
2022-11-24T03:33:15.511Z,47.80
2022-11-24T03:35:43.132Z,49.03
2022-11-24T03:38:10.083Z,46.63
2022-11-24T03:40:37.012Z,33.43
2022-11-24T03:43:04.005Z,44.80
2022-11-24T03:45:45.428Z,50.87
2022-11-24T03:48:13.214Z,44.20
2022-11-24T03:50:40.163Z,44.13
2022-11-24T03:53:07.481Z,44.17
2022-11-24T03:55:34.523Z,45.00
2022-11-24T03:58:01.474Z,44.07
2022-11-24T04:00:28.173Z,42.97
2022-11-24T04:02:55.154Z,46.30
2022-11-24T04:05:21.827Z,37.40
2022-11-24T04:07:48.548Z,48.37
2022-11-24T04:10:16.095Z,45.57
2022-11-24T04:12:44.977Z,40.97
2022-11-24T04:15:12.005Z,42.37
2022-11-24T04:17:38.971Z,42.77
2022-11-24T04:20:06.618Z,47.60
2022-11-24T04:22:33.565Z,42.13
2022-11-24T04:25:00.520Z,41.07
2022-11-24T04:27:27.947Z,41.30
2022-11-24T04:29:55.035Z,39.30
2022-11-24T04:32:21.733Z,40.67
2022-11-24T04:34:48.413Z,41.80
2022-11-24T04:37:15.363Z,32.40
2022-11-24T04:39:42.474Z,45.77
2022-11-24T04:42:09.411Z,25.90
2022-11-24T04:44:36.886Z,32.63
2022-11-24T04:47:04.314Z,38.87
2022-11-24T04:49:31.224Z,32.30
2022-11-24T04:51:58.138Z,44.13
2022-11-24T04:54:25.161Z,41.00
2022-11-24T04:56:52.409Z,45.10
2022-11-24T04:59:19.260Z,42.27
2022-11-24T05:01:46.714Z,40.57
2022-11-24T05:04:15.113Z,43.80
2022-11-24T05:06:42.087Z,41.13
2022-11-24T05:09:13.331Z,34.80
2022-11-24T05:11:40.169Z,39.57
2022-11-24T05:14:07.352Z,39.17
2022-11-24T05:16:34.040Z,38.17
2022-11-24T05:19:02.923Z,39.73
2022-11-24T05:21:29.952Z,43.47
2022-11-24T05:23:58.079Z,39.97
2022-11-24T05:26:24.736Z,38.70
2022-11-24T05:28:51.708Z,34.87
2022-11-24T05:31:18.527Z,41.53
2022-11-24T05:33:45.855Z,40.27
2022-11-24T05:36:34.276Z,41.27
2022-11-24T05:39:01.026Z,34.77
2022-11-24T05:51:54.978Z,34.20
2022-11-24T05:54:21.994Z,38.77
2022-11-24T05:56:48.648Z,39.83
2022-11-24T05:59:15.286Z,37.57
2022-11-24T06:01:42.231Z,33.43
2022-11-24T06:04:09.258Z,34.13
2022-11-24T06:06:36.308Z,36.67
2022-11-24T06:09:04.205Z,34.97
2022-11-24T06:11:31.212Z,30.80
2022-11-24T06:13:58.284Z,34.47
2022-11-24T06:16:25.049Z,37.40
2022-11-24T06:18:51.721Z,35.13
2022-11-24T06:21:18.346Z,26.47
2022-11-24T06:23:47.799Z,30.83
2022-11-24T06:26:17.111Z,18.33
2022-11-24T06:28:44.263Z,32.17
2022-11-24T06:31:12.301Z,30.07
2022-11-24T06:33:39.569Z,36.57
2022-11-24T06:36:08.205Z,34.80
2022-11-24T06:38:38.819Z,24.60
2022-11-24T06:41:07.233Z,30.20
2022-11-24T06:43:35.956Z,27.33
2022-11-24T06:46:03.573Z,29.37
2022-11-24T06:48:31.206Z,29.60
2022-11-24T06:50:59.750Z,31.53
2022-11-24T06:53:27.260Z,31.13
2022-11-24T06:55:54.270Z,29.43
2022-11-24T06:58:21.719Z,33.67
2022-11-24T07:00:51.407Z,33.27
2022-11-24T07:03:18.922Z,31.77
2022-11-24T07:05:46.145Z,36.30
2022-11-24T07:08:17.637Z,34.10
2022-11-24T07:10:49.146Z,31.67
2022-11-24T07:13:17.276Z,30.47
2022-11-24T07:15:44.418Z,29.73
2022-11-24T07:18:13.062Z,34.30
2022-11-24T07:20:40.233Z,32.97
2022-11-24T07:23:07.358Z,30.60
2022-11-24T07:25:34.282Z,18.60
2022-11-24T07:28:01.363Z,19.83
2022-11-24T07:30:28.290Z,29.00
2022-11-24T07:32:59.711Z,30.13
2022-11-24T07:35:29.407Z,33.07
2022-11-24T07:37:57.084Z,33.33
2022-11-24T07:40:24.163Z,32.90
2022-11-24T07:42:51.148Z,29.87
2022-11-24T07:45:22.224Z,28.93
2022-11-24T07:47:50.036Z,30.13
2022-11-24T07:50:17.442Z,30.40
2022-11-24T07:52:44.868Z,33.97
2022-11-24T07:55:11.513Z,30.57
2022-11-24T07:57:39.093Z,31.80
2022-11-24T08:00:10.663Z,28.43
2022-11-24T08:02:37.359Z,30.00
2022-11-24T08:05:04.584Z,32.10
2022-11-24T08:07:31.236Z,33.63
2022-11-24T08:09:58.749Z,29.80
2022-11-24T08:12:25.634Z,31.20
2022-11-24T08:14:52.564Z,23.47
2022-11-24T08:17:19.475Z,24.37
2022-11-24T08:19:46.414Z,29.90
2022-11-24T08:22:13.335Z,26.37
2022-11-24T08:24:45.896Z,27.17
2022-11-24T08:27:13.892Z,24.17
2022-11-24T08:29:41.005Z,24.77
2022-11-24T08:32:08.124Z,31.50
2022-11-24T08:34:35.819Z,27.53
2022-11-24T08:37:03.628Z,31.97
2022-11-24T08:39:30.406Z,30.30
2022-11-24T08:41:57.228Z,29.97
2022-11-24T08:44:24.685Z,31.23
2022-11-24T08:46:53.254Z,26.87
2022-11-24T08:49:21.070Z,30.77
2022-11-24T08:51:49.317Z,27.03
2022-11-24T08:54:17.944Z,33.63
2022-11-24T08:56:45.242Z,31.73
2022-11-24T08:59:13.125Z,31.57
2022-11-24T09:01:41.102Z,30.37
2022-11-24T09:04:07.867Z,29.63
2022-11-24T09:06:35.026Z,31.23
2022-11-24T09:09:02.003Z,28.43
2022-11-24T09:11:28.801Z,27.67
2022-11-24T09:13:55.621Z,32.90
2022-11-24T09:16:25.136Z,30.93
2022-11-24T09:18:56.755Z,34.43
2022-11-24T09:21:23.634Z,32.30
2022-11-24T09:23:51.798Z,31.73
2022-11-24T09:26:20.741Z,33.40
2022-11-24T09:28:48.198Z,30.73
2022-11-24T09:31:17.153Z,32.57
2022-11-24T09:33:44.588Z,30.97
2022-11-24T09:36:12.440Z,29.13
2022-11-24T09:38:39.619Z,29.07
2022-11-24T09:41:38.809Z,27.87
2022-11-24T09:44:11.477Z,29.27
2022-11-24T09:46:48.886Z,30.77
2022-11-24T09:49:23.816Z,29.43
2022-11-24T09:51:54.756Z,32.70
2022-11-24T09:54:25.746Z,24.47
2022-11-24T09:56:52.702Z,31.07
2022-11-24T09:59:21.779Z,29.77
2022-11-24T10:01:50.407Z,30.23
2022-11-24T10:04:21.152Z,30.37
2022-11-24T10:07:01.169Z,32.20
2022-11-24T10:09:56.318Z,29.77
2022-11-24T10:12:42.728Z,28.53
2022-11-24T10:15:37.621Z,27.57
2022-11-24T10:18:30.033Z,28.17
2022-11-24T10:21:07.330Z,28.90
2022-11-24T10:23:49.446Z,26.57
2022-11-24T10:26:32.653Z,25.03
2022-11-24T10:28:59.899Z,25.93
2022-11-24T10:31:32.667Z,29.27
2022-11-24T10:34:03.988Z,26.67
2022-11-24T10:36:42.193Z,28.70
2022-11-24T10:39:17.913Z,28.23
2022-11-24T10:41:50.634Z,26.53
2022-11-24T10:44:17.554Z,27.67
2022-11-24T10:46:44.339Z,26.47
2022-11-24T10:49:17.697Z,25.70
2022-11-24T10:51:56.602Z,22.70
2022-11-24T10:54:24.352Z,23.87
2022-11-24T10:56:52.254Z,25.67
2022-11-24T10:59:27.449Z,23.57
2022-11-24T11:01:56.916Z,24.50
2022-11-24T11:04:26.848Z,25.10
2022-11-24T11:07:15.902Z,23.43
2022-11-24T11:09:43.593Z,24.63
2022-11-24T11:12:41.947Z,24.87
2022-11-24T11:15:22.692Z,25.30
2022-11-24T11:17:51.694Z,22.00
2022-11-24T11:20:20.791Z,23.47
2022-11-24T11:22:48.869Z,22.77
2022-11-24T11:25:21.888Z,21.40
2022-11-24T11:27:49.156Z,21.83
2022-11-24T11:36:10.590Z,25.03
2022-11-24T11:38:39.077Z,21.93
2022-11-24T11:41:10.545Z,22.93
2022-11-24T11:43:40.650Z,23.47
2022-11-24T11:46:12.912Z,23.40
2022-11-24T11:48:44.361Z,22.73
2022-11-24T11:51:30.147Z,22.97
2022-11-24T11:54:04.982Z,25.03
2022-11-24T11:56:43.512Z,24.07
2022-11-24T11:59:36.985Z,23.27
2022-11-24T12:02:31.052Z,24.73
2022-11-24T12:05:00.588Z,22.50
2022-11-24T12:07:41.632Z,23.77
2022-11-24T12:10:21.832Z,23.73
2022-11-24T12:13:28.278Z,23.83
2022-11-24T12:15:57.614Z,23.70
2022-11-24T12:18:56.684Z,23.80
2022-11-24T12:21:26.904Z,21.63
2022-11-24T12:24:08.273Z,22.40
2022-11-24T12:26:42.616Z,20.67
2022-11-24T12:29:48.469Z,23.13
2022-11-24T12:32:28.421Z,25.00
2022-11-24T12:34:59.369Z,23.63
2022-11-24T12:37:42.753Z,24.30
2022-11-24T12:40:15.461Z,22.63
2022-11-24T12:42:51.548Z,23.60
2022-11-24T12:45:28.047Z,22.90
2022-11-24T12:48:15.397Z,23.60
2022-11-24T12:50:45.427Z,23.43
2022-11-24T12:53:15.178Z,23.57
2022-11-24T12:55:43.005Z,23.17
2022-11-24T12:58:16.881Z,24.13
2022-11-24T13:00:55.289Z,23.37
2022-11-24T13:03:33.238Z,23.77
2022-11-24T13:06:05.713Z,24.40
2022-11-24T13:08:32.718Z,24.40
2022-11-24T13:11:33.369Z,23.53
2022-11-24T13:14:02.424Z,22.17
2022-11-24T13:16:38.511Z,23.47
2022-11-24T13:19:15.564Z,23.67
2022-11-24T13:22:16.975Z,22.67
2022-11-24T13:24:44.586Z,22.63
2022-11-24T13:27:39.373Z,23.70
2022-11-24T13:30:51.311Z,23.13
2022-11-24T13:33:32.518Z,25.07
2022-11-24T13:36:30.680Z,24.60
2022-11-24T13:38:58.475Z,23.87
2022-11-24T13:42:10.328Z,23.70
2022-11-24T13:44:58.326Z,25.30
2022-11-24T13:47:34.462Z,23.73
2022-11-24T13:50:03.721Z,25.37
2022-11-24T13:52:43.809Z,25.13
2022-11-24T13:55:31.365Z,23.97
2022-11-24T13:58:02.249Z,25.77
2022-11-24T14:00:31.336Z,24.77
2022-11-24T14:03:01.241Z,25.67
2022-11-24T14:05:35.484Z,24.37
2022-11-24T14:08:03.033Z,22.47
2022-11-24T14:10:33.852Z,25.53
2022-11-24T14:13:17.499Z,26.20
2022-11-24T14:15:44.505Z,23.97
2022-11-24T14:18:17.439Z,25.00
2022-11-24T14:20:44.873Z,24.90
2022-11-24T14:23:12.451Z,25.53
2022-11-24T14:25:39.284Z,26.73
2022-11-24T14:28:15.150Z,25.97
2022-11-24T14:30:42.478Z,24.37
2022-11-24T14:33:11.970Z,24.77
2022-11-24T14:35:43.722Z,26.80
2022-11-24T14:38:12.844Z,26.00
2022-11-24T14:40:41.459Z,24.70
2022-11-24T14:43:18.531Z,24.90
2022-11-24T14:45:49.862Z,22.50
2022-11-24T14:48:26.569Z,24.97
2022-11-24T14:51:03.921Z,25.37
2022-11-24T14:53:31.712Z,27.27
2022-11-24T14:56:10.008Z,26.20
2022-11-24T14:58:41.964Z,27.53
2022-11-24T15:01:21.644Z,25.47
2022-11-24T15:04:54.234Z,28.20
2022-11-24T15:07:16.361Z,23.87
2022-11-24T15:09:50.836Z,25.43
2022-11-24T15:12:27.925Z,25.87
2022-11-24T15:14:57.819Z,25.90
2022-11-24T15:17:27.856Z,26.47
2022-11-24T15:19:57.581Z,24.23
2022-11-24T15:22:37.786Z,25.30
2022-11-24T15:25:27.286Z,25.73
2022-11-24T15:27:54.351Z,21.67
2022-11-24T15:30:21.002Z,25.33
2022-11-24T15:32:52.282Z,22.27
2022-11-24T15:35:20.870Z,26.57
2022-11-24T15:37:47.539Z,25.97
2022-11-24T15:40:15.068Z,25.80
2022-11-24T15:42:51.844Z,26.50
2022-11-24T15:45:19.790Z,27.50
2022-11-24T15:47:46.713Z,27.47
2022-11-24T15:50:13.917Z,25.03
2022-11-24T15:52:41.601Z,26.07
2022-11-24T15:55:16.952Z,25.87
2022-11-24T15:57:44.895Z,27.17
2022-11-24T16:00:16.238Z,28.83
2022-11-24T16:02:43.448Z,26.33
2022-11-24T16:05:11.640Z,28.33
2022-11-24T16:07:38.571Z,29.67
2022-11-24T16:10:08.189Z,28.00
2022-11-24T16:12:34.848Z,27.03
2022-11-24T16:15:02.456Z,29.03
2022-11-24T16:17:29.222Z,25.33
2022-11-24T16:20:00.831Z,26.03
2022-11-24T16:22:27.776Z,28.00
2022-11-24T16:24:55.686Z,29.67
2022-11-24T16:27:22.908Z,29.00
2022-11-24T16:29:49.774Z,31.73
2022-11-24T16:32:17.834Z,28.70
2022-11-24T16:34:45.923Z,28.10
2022-11-24T16:37:13.246Z,28.27
2022-11-24T16:39:39.971Z,28.17
2022-11-24T16:42:08.988Z,28.03
2022-11-24T16:44:36.990Z,29.10
2022-11-24T16:47:04.368Z,28.00
2022-11-24T16:49:32.255Z,27.37
2022-11-24T16:51:59.612Z,26.73
2022-11-24T16:54:26.700Z,26.33
2022-11-24T16:56:54.932Z,25.83
2022-11-24T16:59:21.784Z,27.60
2022-11-24T17:01:50.189Z,25.50
2022-11-24T17:04:17.460Z,25.73
2022-11-24T17:06:44.889Z,25.23
2022-11-24T17:09:11.788Z,27.03
2022-11-24T17:11:38.876Z,26.33
2022-11-24T17:14:05.615Z,26.57
2022-11-24T17:16:32.477Z,25.57
2022-11-24T17:18:59.274Z,25.80
2022-11-24T17:21:27.166Z,26.40
2022-11-24T17:23:55.357Z,26.53
2022-11-24T17:26:22.344Z,27.57
2022-11-24T17:28:49.198Z,26.27
2022-11-24T17:31:19.880Z,34.10
2022-11-24T17:33:47.955Z,31.23
2022-11-24T17:36:14.740Z,26.93
2022-11-24T17:38:41.631Z,25.87
2022-11-24T17:41:08.994Z,27.87
2022-11-24T17:43:35.961Z,26.90
2022-11-24T17:46:05.171Z,27.17
2022-11-24T17:48:32.654Z,26.57
2022-11-24T17:51:00.882Z,28.07
2022-11-24T17:53:27.729Z,27.90
2022-11-24T17:55:54.413Z,27.63
2022-11-24T17:58:21.840Z,27.63
2022-11-24T18:00:51.306Z,27.70
2022-11-24T18:03:18.339Z,29.13
2022-11-24T18:05:45.304Z,26.57
2022-11-24T18:08:12.047Z,29.17
2022-11-24T18:10:39.073Z,29.00
2022-11-24T18:13:05.712Z,28.83
2022-11-24T18:15:34.012Z,27.60
2022-11-24T18:18:00.796Z,27.50
2022-11-24T18:20:29.358Z,28.60
2022-11-24T18:23:05.506Z,30.63
2022-11-24T18:25:36.407Z,29.67
2022-11-24T18:28:04.502Z,29.90
2022-11-24T18:30:31.483Z,29.67
2022-11-24T18:32:59.227Z,28.87
2022-11-24T18:35:26.183Z,30.50
2022-11-24T18:37:53.621Z,29.53
2022-11-24T18:40:20.275Z,29.50
2022-11-24T18:42:48.227Z,27.57
2022-11-24T18:45:14.999Z,28.10
2022-11-24T18:47:41.793Z,29.53
2022-11-24T18:50:10.122Z,40.27
2022-11-24T18:52:37.113Z,30.90
2022-11-24T18:55:04.497Z,28.63
2022-11-24T18:57:31.246Z,33.03
2022-11-24T18:59:59.345Z,30.67
2022-11-24T19:02:45.472Z,28.77
2022-11-24T19:05:12.933Z,28.83
2022-11-24T19:07:40.541Z,29.17
2022-11-24T19:10:11.142Z,31.07
2022-11-24T19:12:37.979Z,28.37
2022-11-24T19:15:06.152Z,30.27
2022-11-24T19:17:32.878Z,31.13
2022-11-24T19:19:59.762Z,30.77
2022-11-24T19:22:27.726Z,30.00
2022-11-24T19:24:54.535Z,29.83
2022-11-24T19:27:26.915Z,28.97
2022-11-24T19:29:55.308Z,30.47
2022-11-24T19:32:22.398Z,31.13
2022-11-24T19:34:49.408Z,30.73
2022-11-24T19:37:19.505Z,29.50
2022-11-24T19:39:47.100Z,32.03
2022-11-24T19:42:14.300Z,31.03
2022-11-24T19:44:41.339Z,31.53
2022-11-24T19:47:08.176Z,31.53
2022-11-24T19:49:37.620Z,32.63
2022-11-24T19:52:06.293Z,30.50
2022-11-24T19:54:35.136Z,34.10
2022-11-24T19:57:03.670Z,34.07
2022-11-24T19:59:30.380Z,33.87
2022-11-24T20:01:57.335Z,32.83
2022-11-24T20:04:24.352Z,34.30
2022-11-24T20:06:51.614Z,31.93
2022-11-24T20:09:18.563Z,29.67
2022-11-24T20:11:45.721Z,33.53
2022-11-24T20:14:14.946Z,33.17
2022-11-24T20:16:41.755Z,31.83
2022-11-24T20:19:12.224Z,33.57
2022-11-24T20:21:40.830Z,33.03
2022-11-24T20:24:10.388Z,35.67
2022-11-24T20:26:38.938Z,35.27
2022-11-24T20:29:06.303Z,34.73
2022-11-24T20:31:37.657Z,32.20
2022-11-24T20:34:06.650Z,32.00
2022-11-24T20:36:35.509Z,35.33
2022-11-24T20:39:05.034Z,35.80
2022-11-24T20:41:36.837Z,34.23
2022-11-24T20:44:07.466Z,37.03
2022-11-24T20:46:37.504Z,35.30
2022-11-24T20:49:04.767Z,35.00
2022-11-24T20:51:33.935Z,37.97
2022-11-24T20:54:04.360Z,32.57
2022-11-24T20:56:34.378Z,35.27
2022-11-24T20:59:02.792Z,48.50
2022-11-24T21:01:34.392Z,51.30
2022-11-24T21:04:03.218Z,40.60
2022-11-24T21:06:30.916Z,37.03
2022-11-24T21:09:03.412Z,33.53
2022-11-24T21:11:31.515Z,34.53
2022-11-24T21:13:59.618Z,34.30
2022-11-24T21:16:28.604Z,33.03
2022-11-24T21:18:58.234Z,31.53
2022-11-24T21:21:32.708Z,32.47
2022-11-24T21:24:00.325Z,33.37
2022-11-24T21:26:27.605Z,34.80
2022-11-24T21:28:54.768Z,35.10
2022-11-24T21:31:22.328Z,32.70
2022-11-24T21:33:50.834Z,36.13
2022-11-24T21:36:21.768Z,31.70
2022-11-24T21:38:53.849Z,29.20
2022-11-24T21:41:21.774Z,30.30
2022-11-24T21:43:50.070Z,30.93
2022-11-24T21:46:21.532Z,33.70
2022-11-24T21:48:48.937Z,30.17
2022-11-24T21:51:17.313Z,29.60
2022-11-24T21:53:47.972Z,31.53
2022-11-24T21:56:19.743Z,31.33
2022-11-24T21:58:49.405Z,33.30
2022-11-24T22:01:17.979Z,32.13
2022-11-24T22:03:46.480Z,32.80
2022-11-24T22:06:14.113Z,32.00
2022-11-24T22:08:43.764Z,33.97
2022-11-24T22:11:12.869Z,33.40
2022-11-24T22:13:42.276Z,37.27
2022-11-24T22:16:11.313Z,31.80
2022-11-24T22:18:39.755Z,33.07
2022-11-24T22:21:07.878Z,33.53
2022-11-24T22:23:35.441Z,35.10
2022-11-24T22:26:03.669Z,32.70
2022-11-24T22:28:31.752Z,33.70
2022-11-24T22:31:02.465Z,34.33
2022-11-24T22:33:29.513Z,35.40
2022-11-24T22:35:56.888Z,32.53
2022-11-24T22:38:23.618Z,31.93
2022-11-24T22:40:50.376Z,33.93
2022-11-24T22:43:22.713Z,33.17
2022-11-24T22:45:50.266Z,34.30
2022-11-24T22:48:17.728Z,34.90
2022-11-24T22:50:44.531Z,33.77
2022-11-24T22:53:11.306Z,32.57
2022-11-24T22:55:38.210Z,35.10
2022-11-24T22:58:04.856Z,33.70
2022-11-24T23:00:31.914Z,34.07
2022-11-24T23:02:59.182Z,33.20
2022-11-24T23:05:28.430Z,33.57
2022-11-24T23:07:55.574Z,34.00
2022-11-24T23:10:22.503Z,33.10
2022-11-24T23:12:49.728Z,34.13
2022-11-24T23:15:16.868Z,34.50
2022-11-24T23:17:43.727Z,35.70
2022-11-24T23:20:11.985Z,36.07
2022-11-24T23:22:39.424Z,34.60
2022-11-24T23:25:06.826Z,36.13
2022-11-24T23:27:33.634Z,34.50
2022-11-24T23:30:00.599Z,37.07
2022-11-24T23:32:27.276Z,36.93
2022-11-24T23:34:54.322Z,34.10
2022-11-24T23:37:34.308Z,36.70
2022-11-24T23:40:12.287Z,35.50
2022-11-24T23:42:39.793Z,33.23
2022-11-24T23:45:08.180Z,35.63
2022-11-24T23:47:35.172Z,33.83
2022-11-24T23:50:01.956Z,36.60
2022-11-24T23:52:32.403Z,34.40
2022-11-24T23:54:59.348Z,33.73
2022-11-24T23:57:27.128Z,36.17
2022-11-24T23:59:54.921Z,39.90
